createdAt,value
2018-06-23T00:00:58.666Z,18.80
2018-06-23T00:03:27.357Z,18.80
2018-06-23T00:05:55.988Z,18.79
2018-06-23T00:08:24.607Z,18.78
2018-06-23T00:10:53.285Z,18.79
2018-06-23T00:13:22.015Z,18.79
2018-06-23T00:15:50.563Z,18.77
2018-06-23T00:18:19.191Z,18.73
2018-06-23T00:20:47.861Z,18.70
2018-06-23T00:23:16.466Z,18.64
2018-06-23T00:25:50.128Z,18.54
2018-06-23T00:28:18.651Z,18.46
2018-06-23T00:30:47.240Z,18.38
2018-06-23T00:33:15.800Z,18.33
2018-06-23T00:35:44.438Z,18.28
2018-06-23T00:38:13.234Z,18.20
2018-06-23T00:40:41.999Z,18.14
2018-06-23T00:43:10.795Z,18.07
2018-06-23T00:45:39.663Z,18.02
2018-06-23T00:48:08.373Z,17.99
2018-06-23T00:50:37.378Z,18.02
2018-06-23T00:53:06.275Z,18.04
2018-06-23T00:55:35.199Z,18.10
2018-06-23T00:58:03.993Z,18.13
2018-06-23T01:00:32.787Z,18.15
2018-06-23T01:03:01.632Z,18.18
2018-06-23T01:05:30.296Z,18.22
2018-06-23T01:07:59.263Z,18.22
2018-06-23T01:10:28.454Z,18.24
2018-06-23T01:12:57.261Z,18.24
2018-06-23T01:15:26.042Z,18.22
2018-06-23T01:17:54.943Z,18.17
2018-06-23T01:20:23.547Z,18.11
2018-06-23T01:22:52.145Z,18.08
2018-06-23T01:25:20.815Z,18.07
2018-06-23T01:27:49.399Z,18.09
2018-06-23T01:30:17.954Z,18.11
2018-06-23T01:32:46.604Z,18.12
2018-06-23T01:35:15.210Z,18.13
2018-06-23T01:37:44.008Z,18.11
2018-06-23T01:40:12.642Z,18.09
2018-06-23T01:42:41.238Z,18.08
2018-06-23T01:45:09.857Z,18.08
2018-06-23T01:47:38.541Z,18.07
2018-06-23T01:50:07.174Z,18.04
2018-06-23T01:52:35.855Z,18.01
2018-06-23T01:55:04.608Z,17.96
2018-06-23T01:57:33.237Z,17.90
2018-06-23T02:00:01.851Z,17.85
2018-06-23T02:02:30.700Z,17.81
2018-06-23T02:04:59.344Z,17.75
2018-06-23T02:07:28.060Z,17.70
2018-06-23T02:09:56.628Z,17.68
2018-06-23T02:12:25.354Z,17.63
2018-06-23T02:14:59.103Z,17.59
2018-06-23T02:17:32.916Z,17.59
2018-06-23T02:20:06.677Z,17.55
2018-06-23T02:22:40.410Z,17.54
2018-06-23T02:25:14.165Z,17.54
2018-06-23T02:27:47.863Z,17.55
2018-06-23T02:30:21.599Z,17.53
2018-06-23T02:32:52.677Z,17.55
2018-06-23T02:35:21.700Z,17.55
2018-06-23T02:37:50.436Z,17.55
2018-06-23T02:40:19.029Z,17.55
2018-06-23T02:42:47.663Z,17.59
2018-06-23T02:45:16.225Z,17.61
2018-06-23T02:47:44.798Z,17.61
2018-06-23T02:50:13.445Z,17.61
2018-06-23T02:52:41.988Z,17.60
2018-06-23T02:55:10.566Z,17.58
2018-06-23T02:57:39.151Z,17.59
2018-06-23T03:00:07.817Z,17.61
2018-06-23T03:02:36.404Z,17.58
2018-06-23T03:05:04.998Z,17.54
2018-06-23T03:07:33.670Z,17.51
2018-06-23T03:10:02.252Z,17.44
2018-06-23T03:12:30.859Z,17.38
2018-06-23T03:14:59.431Z,17.30
2018-06-23T03:17:28.014Z,17.24
2018-06-23T03:19:56.675Z,17.20
2018-06-23T03:22:25.231Z,17.16
2018-06-23T03:24:53.874Z,17.13
2018-06-23T03:27:22.441Z,17.14
2018-06-23T03:29:51.059Z,17.14
2018-06-23T03:32:19.626Z,17.12
2018-06-23T03:34:48.167Z,17.10
2018-06-23T03:37:16.745Z,17.05
2018-06-23T03:39:45.475Z,17.03
2018-06-23T03:42:14.063Z,17.04
2018-06-23T03:44:42.636Z,17.06
2018-06-23T03:47:12.118Z,17.07
2018-06-23T03:49:40.707Z,17.07
2018-06-23T03:54:50.473Z,17.06
2018-06-23T03:57:19.225Z,17.04
2018-06-23T03:59:48.086Z,17.04
2018-06-23T04:02:16.745Z,17.04
2018-06-23T04:04:45.875Z,17.04
2018-06-23T04:07:14.484Z,17.06
2018-06-23T04:09:43.094Z,17.10
2018-06-23T04:12:20.639Z,17.13
2018-06-23T04:14:51.531Z,17.18
2018-06-23T04:17:20.220Z,17.15
2018-06-23T04:19:48.864Z,17.14
2018-06-23T04:22:17.447Z,17.13
2018-06-23T04:24:46.377Z,17.12
2018-06-23T04:27:14.928Z,17.11
2018-06-23T04:29:44.060Z,17.10
2018-06-23T04:32:12.863Z,17.10
2018-06-23T04:34:41.544Z,17.09
2018-06-23T04:37:10.201Z,17.10
2018-06-23T04:39:38.802Z,17.11
2018-06-23T04:42:08.073Z,17.13
2018-06-23T04:44:36.772Z,17.13
2018-06-23T04:47:05.556Z,17.14
2018-06-23T04:49:35.373Z,17.17
2018-06-23T04:52:03.956Z,17.20
2018-06-23T04:54:32.485Z,17.30
2018-06-23T04:57:00.984Z,17.40
2018-06-23T04:59:29.518Z,17.52
2018-06-23T05:01:58.095Z,17.65
2018-06-23T05:04:26.643Z,17.74
2018-06-23T05:06:55.538Z,17.81
2018-06-23T05:09:24.231Z,17.86
2018-06-23T05:11:52.799Z,17.95
2018-06-23T05:14:21.507Z,17.99
2018-06-23T05:16:50.053Z,18.06
2018-06-23T05:19:18.889Z,18.11
2018-06-23T05:21:47.606Z,18.15
2018-06-23T05:24:16.233Z,18.18
2018-06-23T05:26:44.828Z,18.21
2018-06-23T05:29:14.285Z,18.23
2018-06-23T05:31:42.834Z,18.28
2018-06-23T05:34:11.602Z,18.38
2018-06-23T05:36:40.397Z,18.49
2018-06-23T05:39:10.064Z,18.55
2018-06-23T05:41:38.787Z,18.65
2018-06-23T05:44:07.391Z,18.72
2018-06-23T05:46:36.106Z,18.79
2018-06-23T05:49:05.564Z,18.85
2018-06-23T05:51:34.130Z,18.92
2018-06-23T05:54:02.717Z,18.94
2018-06-23T05:56:31.348Z,18.97
2018-06-23T05:58:59.946Z,18.96
2018-06-23T06:01:28.562Z,18.91
2018-06-23T06:03:57.236Z,18.87
2018-06-23T06:06:25.753Z,18.83
2018-06-23T06:08:54.329Z,18.79
2018-06-23T06:11:22.960Z,18.76
2018-06-23T06:13:51.613Z,18.71
2018-06-23T06:16:26.516Z,18.71
2018-06-23T06:18:55.558Z,18.72
2018-06-23T06:21:24.370Z,18.70
2018-06-23T06:23:53.101Z,18.66
2018-06-23T06:26:21.787Z,18.63
2018-06-23T06:28:53.678Z,18.64
2018-06-23T06:31:23.282Z,18.69
2018-06-23T06:33:53.271Z,18.70
2018-06-23T06:36:22.086Z,18.69
2018-06-23T06:38:50.971Z,18.69
2018-06-23T06:41:19.781Z,18.69
2018-06-23T06:43:48.579Z,18.69
2018-06-23T06:46:17.278Z,18.71
2018-06-23T06:48:46.051Z,18.76
2018-06-23T06:51:14.650Z,18.74
2018-06-23T06:53:43.379Z,18.70
2018-06-23T06:56:12.816Z,18.70
2018-06-23T06:58:41.470Z,18.70
2018-06-23T07:01:10.035Z,18.68
2018-06-23T07:03:38.931Z,18.64
2018-06-23T07:06:07.900Z,18.63
2018-06-23T07:08:36.475Z,18.54
2018-06-23T07:11:05.020Z,18.55
2018-06-23T07:13:34.409Z,18.58
2018-06-23T07:16:02.931Z,18.61
2018-06-23T07:18:32.635Z,18.72
2018-06-23T07:21:01.228Z,18.93
2018-06-23T07:23:29.907Z,19.15
2018-06-23T07:25:58.538Z,19.42
2018-06-23T07:28:27.347Z,19.69
2018-06-23T07:30:56.024Z,19.88
2018-06-23T07:33:24.655Z,20.19
2018-06-23T07:35:53.276Z,20.49
2018-06-23T07:38:21.821Z,20.59
2018-06-23T07:40:50.733Z,20.63
2018-06-23T07:43:19.750Z,20.91
2018-06-23T07:45:49.477Z,21.17
2018-06-23T07:48:19.144Z,21.30
2018-06-23T07:50:50.551Z,21.49
2018-06-23T07:53:23.115Z,21.86
2018-06-23T07:55:52.970Z,22.06
2018-06-23T07:58:21.868Z,22.23
2018-06-23T08:00:52.335Z,22.65
2018-06-23T08:03:22.888Z,22.96
2018-06-23T08:05:52.850Z,23.21
2018-06-23T08:08:23.111Z,23.57
2018-06-23T08:10:52.392Z,24.10
2018-06-23T08:13:21.518Z,24.36
2018-06-23T08:15:50.276Z,24.46
2018-06-23T08:18:18.870Z,24.53
2018-06-23T08:20:48.218Z,24.68
2018-06-23T08:23:17.308Z,24.71
2018-06-23T08:25:46.294Z,24.73
2018-06-23T08:28:15.021Z,24.90
2018-06-23T08:30:43.734Z,25.58
2018-06-23T08:33:12.584Z,26.33
2018-06-23T08:35:42.641Z,26.72
2018-06-23T08:38:13.817Z,26.85
2018-06-23T08:40:43.700Z,26.86
2018-06-23T08:43:15.929Z,26.53
2018-06-23T08:45:50.134Z,26.06
2018-06-23T08:48:19.108Z,25.60
2018-06-23T08:50:48.396Z,25.07
2018-06-23T08:53:17.270Z,24.50
2018-06-23T08:55:46.259Z,24.15
2018-06-23T08:58:21.860Z,24.02
2018-06-23T09:00:52.050Z,24.13
2018-06-23T09:03:20.856Z,24.35
2018-06-23T09:06:02.585Z,24.43
2018-06-23T09:08:32.644Z,25.17
2018-06-23T09:11:07.630Z,26.38
2018-06-23T09:13:36.433Z,27.43
2018-06-23T09:16:05.176Z,28.41
2018-06-23T09:18:34.737Z,29.30
2018-06-23T09:21:03.428Z,29.66
2018-06-23T09:23:32.329Z,29.80
2018-06-23T09:26:01.128Z,30.37
2018-06-23T09:28:30.046Z,30.96
2018-06-23T09:30:58.904Z,30.92
2018-06-23T09:33:27.872Z,31.50
2018-06-23T09:35:56.869Z,31.37
2018-06-23T09:38:26.500Z,31.87
2018-06-23T09:40:55.140Z,31.94
2018-06-23T09:43:24.088Z,31.44
2018-06-23T09:45:53.011Z,30.92
2018-06-23T09:48:21.899Z,30.23
2018-06-23T09:50:50.704Z,29.43
2018-06-23T09:53:20.010Z,28.65
2018-06-23T09:55:48.846Z,27.90
2018-06-23T09:58:19.764Z,27.28
2018-06-23T10:00:48.655Z,26.59
2018-06-23T10:03:17.507Z,26.09
2018-06-23T10:05:46.553Z,25.65
2018-06-23T10:08:15.296Z,25.30
2018-06-23T10:10:43.980Z,25.00
2018-06-23T10:13:12.669Z,24.75
2018-06-23T10:15:41.318Z,24.59
2018-06-23T10:18:10.109Z,24.60
2018-06-23T10:20:38.955Z,24.84
2018-06-23T10:23:07.774Z,25.12
2018-06-23T10:25:36.622Z,25.34
2018-06-23T10:28:05.319Z,25.49
2018-06-23T10:30:34.084Z,25.50
2018-06-23T10:33:02.827Z,25.44
2018-06-23T10:35:31.511Z,25.38
2018-06-23T10:38:00.974Z,25.24
2018-06-23T10:40:30.059Z,25.12
2018-06-23T10:42:59.135Z,25.03
2018-06-23T10:45:28.027Z,25.06
2018-06-23T10:47:57.230Z,25.39
2018-06-23T10:50:25.983Z,26.32
2018-06-23T10:52:54.666Z,27.74
2018-06-23T10:55:27.611Z,28.69
2018-06-23T10:57:56.818Z,29.05
2018-06-23T11:00:25.606Z,29.11
2018-06-23T11:02:54.778Z,28.82
2018-06-23T11:05:23.789Z,28.44
2018-06-23T11:07:54.117Z,27.99
2018-06-23T11:10:22.902Z,27.57
2018-06-23T11:12:51.975Z,27.32
2018-06-23T11:15:21.264Z,27.09
2018-06-23T11:17:50.446Z,26.89
2018-06-23T11:20:19.136Z,26.83
2018-06-23T11:22:49.861Z,27.00
2018-06-23T11:25:18.543Z,27.19
2018-06-23T11:27:47.175Z,27.39
2018-06-23T11:30:15.890Z,27.63
2018-06-23T11:32:44.940Z,28.02
2018-06-23T11:35:13.711Z,28.53
2018-06-23T11:37:42.277Z,28.87
2018-06-23T11:40:10.992Z,29.12
2018-06-23T11:42:39.596Z,29.15
2018-06-23T11:45:08.135Z,29.22
2018-06-23T11:47:36.828Z,29.17
2018-06-23T11:50:05.569Z,29.10
2018-06-23T11:52:34.273Z,29.14
2018-06-23T11:55:02.845Z,29.25
2018-06-23T11:57:31.385Z,29.42
2018-06-23T12:00:00.002Z,29.54
2018-06-23T12:02:28.669Z,29.57
2018-06-23T12:04:57.238Z,29.61
2018-06-23T12:07:26.026Z,29.64
2018-06-23T12:09:54.626Z,29.68
2018-06-23T12:12:23.748Z,29.61
2018-06-23T12:14:52.337Z,29.46
2018-06-23T12:17:21.146Z,29.49
2018-06-23T12:19:50.478Z,29.58
2018-06-23T12:22:19.146Z,29.49
2018-06-23T12:24:48.033Z,29.33
2018-06-23T12:27:16.611Z,29.18
2018-06-23T12:29:45.198Z,29.08
2018-06-23T12:32:13.893Z,28.91
2018-06-23T12:34:42.896Z,28.76
2018-06-23T12:37:11.459Z,28.58
2018-06-23T12:39:40.248Z,28.44
2018-06-23T12:42:09.218Z,28.33
2018-06-23T12:44:38.191Z,28.32
2018-06-23T12:47:07.134Z,28.48
2018-06-23T12:49:35.802Z,28.67
2018-06-23T12:52:04.861Z,28.67
2018-06-23T12:54:33.627Z,28.67
2018-06-23T12:57:03.003Z,28.74
2018-06-23T12:59:32.081Z,28.72
2018-06-23T13:02:01.393Z,28.55
2018-06-23T13:04:30.506Z,28.42
2018-06-23T13:06:59.330Z,28.40
2018-06-23T13:09:28.107Z,28.40
2018-06-23T13:11:57.125Z,28.43
2018-06-23T13:14:26.328Z,28.53
2018-06-23T13:16:55.461Z,28.63
2018-06-23T13:19:24.140Z,28.72
2018-06-23T13:21:53.999Z,28.69
2018-06-23T13:24:22.669Z,28.72
2018-06-23T13:26:51.588Z,28.80
2018-06-23T13:29:20.476Z,28.79
2018-06-23T13:31:49.379Z,28.66
2018-06-23T13:34:18.168Z,28.53
2018-06-23T13:36:46.833Z,28.52
2018-06-23T13:39:15.588Z,28.47
2018-06-23T13:41:44.184Z,28.40
2018-06-23T13:44:12.854Z,28.36
2018-06-23T13:46:41.517Z,28.33
2018-06-23T13:49:10.122Z,28.31
2018-06-23T13:51:38.606Z,28.19
2018-06-23T13:54:07.370Z,27.99
2018-06-23T13:56:35.925Z,27.69
2018-06-23T13:59:04.687Z,27.31
2018-06-23T14:01:33.489Z,26.96
2018-06-23T14:04:02.351Z,26.73
2018-06-23T14:06:31.065Z,26.53
2018-06-23T14:08:59.693Z,26.30
2018-06-23T14:11:28.412Z,26.11
2018-06-23T14:13:57.137Z,25.95
2018-06-23T14:16:25.762Z,25.84
2018-06-23T14:18:54.429Z,25.77
2018-06-23T14:21:23.202Z,25.74
2018-06-23T14:23:52.296Z,25.73
2018-06-23T14:26:20.978Z,25.76
2018-06-23T14:28:50.322Z,25.80
2018-06-23T14:31:19.485Z,25.84
2018-06-23T14:33:48.985Z,25.98
2018-06-23T14:36:19.676Z,26.12
2018-06-23T14:38:48.348Z,26.24
2018-06-23T14:41:17.753Z,26.30
2018-06-23T14:43:46.456Z,26.29
2018-06-23T14:46:15.160Z,26.23
2018-06-23T14:48:44.352Z,26.20
2018-06-23T14:51:13.542Z,26.20
2018-06-23T14:53:42.327Z,26.19
2018-06-23T14:56:11.443Z,26.19
2018-06-23T14:58:40.233Z,26.19
2018-06-23T15:01:09.295Z,26.14
2018-06-23T15:03:38.030Z,26.08
2018-06-23T15:06:08.125Z,26.04
2018-06-23T15:08:47.976Z,25.98
2018-06-23T15:11:28.175Z,25.93
2018-06-23T15:13:58.332Z,25.95
2018-06-23T15:16:27.061Z,25.96
2018-06-23T15:18:55.997Z,25.97
2018-06-23T15:21:24.711Z,25.96
2018-06-23T15:23:53.364Z,25.93
2018-06-23T15:26:22.123Z,25.96
2018-06-23T15:28:50.680Z,25.96
2018-06-23T15:31:19.323Z,25.87
2018-06-23T15:33:47.897Z,25.79
2018-06-23T15:36:16.607Z,25.70
2018-06-23T15:38:45.529Z,25.58
2018-06-23T15:41:14.592Z,25.47
2018-06-23T15:43:43.373Z,25.49
2018-06-23T15:46:12.269Z,25.50
2018-06-23T15:48:41.039Z,25.53
2018-06-23T15:51:09.819Z,25.64
2018-06-23T15:53:38.598Z,25.70
2018-06-23T15:56:07.443Z,25.75
2018-06-23T15:58:36.285Z,25.80
2018-06-23T16:01:05.275Z,25.77
2018-06-23T16:03:34.016Z,25.76
2018-06-23T16:06:02.686Z,25.78
2018-06-23T16:08:31.308Z,25.76
2018-06-23T16:10:59.981Z,25.74
2018-06-23T16:13:28.671Z,25.72
2018-06-23T16:15:57.432Z,25.63
2018-06-23T16:18:26.202Z,25.62
2018-06-23T16:20:54.930Z,25.65
2018-06-23T16:23:23.617Z,25.68
2018-06-23T16:25:52.488Z,25.65
2018-06-23T16:28:22.454Z,25.54
2018-06-23T16:30:51.429Z,25.48
2018-06-23T16:33:20.211Z,25.42
2018-06-23T16:35:48.788Z,25.33
2018-06-23T16:38:17.508Z,25.27
2018-06-23T16:40:46.341Z,25.24
2018-06-23T16:43:15.059Z,25.23
2018-06-23T16:48:17.811Z,25.23
2018-06-23T16:50:47.424Z,25.26
2018-06-23T16:53:16.666Z,25.29
2018-06-23T16:55:46.502Z,25.28
2018-06-23T16:58:15.423Z,25.34
2018-06-23T17:00:44.036Z,25.37
2018-06-23T17:03:13.283Z,25.42
2018-06-23T17:05:42.562Z,25.46
2018-06-23T17:08:11.781Z,25.44
2018-06-23T17:10:40.755Z,25.36
2018-06-23T17:13:09.413Z,25.28
2018-06-23T17:15:38.023Z,25.21
2018-06-23T17:18:06.934Z,25.15
2018-06-23T17:20:35.541Z,25.09
2018-06-23T17:23:04.334Z,25.01
2018-06-23T17:25:33.150Z,24.89
2018-06-23T17:28:02.646Z,24.78
2018-06-23T17:30:31.381Z,24.63
2018-06-23T17:33:00.938Z,24.50
2018-06-23T17:35:29.711Z,24.35
2018-06-23T17:37:58.627Z,24.24
2018-06-23T17:40:27.375Z,24.19
2018-06-23T17:42:55.916Z,24.15
2018-06-23T17:45:24.508Z,24.14
2018-06-23T17:47:53.248Z,24.12
2018-06-23T17:50:21.927Z,24.10
2018-06-23T17:52:50.654Z,24.06
2018-06-23T17:55:19.672Z,24.02
2018-06-23T17:57:48.548Z,24.00
2018-06-23T18:00:17.282Z,23.94
2018-06-23T18:02:46.249Z,23.91
2018-06-23T18:05:15.899Z,23.85
2018-06-23T18:07:44.767Z,23.80
2018-06-23T18:10:13.455Z,23.71
2018-06-23T18:12:43.152Z,23.64
2018-06-23T18:15:12.089Z,23.53
2018-06-23T18:17:41.059Z,23.47
2018-06-23T18:20:09.794Z,23.41
2018-06-23T18:22:38.728Z,23.34
2018-06-23T18:25:07.496Z,23.29
2018-06-23T18:27:36.937Z,23.22
2018-06-23T18:30:06.017Z,23.13
2018-06-23T18:32:35.152Z,23.10
2018-06-23T18:35:04.043Z,23.04
2018-06-23T18:37:34.827Z,23.01
2018-06-23T18:40:04.376Z,22.94
2018-06-23T18:42:33.016Z,22.87
2018-06-23T18:45:01.964Z,22.82
2018-06-23T18:47:30.756Z,22.77
2018-06-23T18:49:59.450Z,22.73
2018-06-23T18:52:28.258Z,22.68
2018-06-23T18:54:57.244Z,22.63
2018-06-23T18:57:26.050Z,22.56
2018-06-23T18:59:55.033Z,22.50
2018-06-23T19:02:24.068Z,22.42
2018-06-23T19:04:52.882Z,22.33
2018-06-23T19:07:21.672Z,22.25
2018-06-23T19:09:50.593Z,22.19
2018-06-23T19:12:19.604Z,22.14
2018-06-23T19:14:48.367Z,22.08
2018-06-23T19:17:16.940Z,22.02
2018-06-23T19:19:45.698Z,21.98
2018-06-23T19:22:14.353Z,21.96
2018-06-23T19:24:43.146Z,21.97
2018-06-23T19:27:11.985Z,21.97
2018-06-23T19:29:40.871Z,21.96
2018-06-23T19:32:09.618Z,21.91
2018-06-23T19:34:38.496Z,21.84
2018-06-23T19:37:07.305Z,21.74
2018-06-23T19:39:35.918Z,21.65
2018-06-23T19:42:04.547Z,21.57
2018-06-23T19:44:34.186Z,21.47
2018-06-23T19:47:02.802Z,21.40
2018-06-23T19:49:31.413Z,21.33
2018-06-23T19:51:59.930Z,21.26
2018-06-23T19:54:28.907Z,21.21
2018-06-23T19:56:57.538Z,21.16
2018-06-23T19:59:26.125Z,21.12
2018-06-23T20:01:54.683Z,21.10
2018-06-23T20:04:23.259Z,21.06
2018-06-23T20:06:51.857Z,21.01
2018-06-23T20:09:20.547Z,21.01
2018-06-23T20:11:49.209Z,20.94
2018-06-23T20:14:18.069Z,20.90
2018-06-23T20:16:46.847Z,20.84
2018-06-23T20:19:15.478Z,20.80
2018-06-23T20:21:44.692Z,20.76
2018-06-23T20:24:13.527Z,20.72
2018-06-23T20:26:42.053Z,20.66
2018-06-23T20:29:10.567Z,20.62
2018-06-23T20:31:39.445Z,20.56
2018-06-23T20:34:08.016Z,20.51
2018-06-23T20:36:36.639Z,20.47
2018-06-23T20:39:07.518Z,20.43
2018-06-23T20:41:36.289Z,20.36
2018-06-23T20:44:04.879Z,20.31
2018-06-23T20:46:33.576Z,20.26
2018-06-23T20:49:02.234Z,20.22
2018-06-23T20:51:31.033Z,20.18
2018-06-23T20:54:00.321Z,20.12
2018-06-23T20:56:29.151Z,20.10
2018-06-23T20:58:57.773Z,20.08
2018-06-23T21:01:26.800Z,20.08
2018-06-23T21:03:55.544Z,20.06
2018-06-23T21:06:24.224Z,20.05
2018-06-23T21:08:52.805Z,20.02
2018-06-23T21:11:21.518Z,19.99
2018-06-23T21:13:50.312Z,19.96
2018-06-23T21:16:19.000Z,19.94
2018-06-23T21:18:47.549Z,19.94
2018-06-23T21:21:16.552Z,19.93
2018-06-23T21:23:45.240Z,19.90
2018-06-23T21:26:13.954Z,19.90
2018-06-23T21:28:42.470Z,19.87
2018-06-23T21:31:10.982Z,19.84
2018-06-23T21:33:39.424Z,19.79
2018-06-23T21:36:08.179Z,19.74
2018-06-23T21:38:36.889Z,19.69
2018-06-23T21:41:05.964Z,19.66
2018-06-23T21:43:35.256Z,19.62
2018-06-23T21:46:04.026Z,19.57
2018-06-23T21:48:32.828Z,19.56
2018-06-23T21:51:01.535Z,19.56
2018-06-23T21:53:30.496Z,19.57
2018-06-23T21:55:59.582Z,19.60
2018-06-23T21:58:28.222Z,19.60
2018-06-23T22:01:01.394Z,19.59
2018-06-23T22:03:30.556Z,19.59
2018-06-23T22:05:59.231Z,19.59
2018-06-23T22:08:27.927Z,19.59
2018-06-23T22:10:56.651Z,19.59
2018-06-23T22:13:25.547Z,19.61
2018-06-23T22:15:54.636Z,19.61
2018-06-23T22:18:23.247Z,19.63
2018-06-23T22:20:51.774Z,19.65
2018-06-23T22:23:20.278Z,19.65
2018-06-23T22:25:48.867Z,19.67
2018-06-23T22:28:17.364Z,19.65
2018-06-23T22:30:45.919Z,19.66
2018-06-23T22:33:14.539Z,19.65
2018-06-23T22:35:43.391Z,19.64
2018-06-23T22:38:11.951Z,19.63
2018-06-23T22:40:40.619Z,19.61
2018-06-23T22:43:09.240Z,19.63
2018-06-23T22:45:37.728Z,19.62
2018-06-23T22:48:06.493Z,19.62
2018-06-23T22:50:35.090Z,19.62
2018-06-23T22:53:03.670Z,19.61
2018-06-23T22:55:33.218Z,19.61
2018-06-23T22:58:01.832Z,19.62
2018-06-23T23:00:30.576Z,19.62
2018-06-23T23:02:59.256Z,19.60
2018-06-23T23:05:27.863Z,19.57
2018-06-23T23:07:56.527Z,19.54
2018-06-23T23:10:25.109Z,19.50
2018-06-23T23:12:53.743Z,19.47
2018-06-23T23:15:22.395Z,19.46
2018-06-23T23:17:50.947Z,19.46
2018-06-23T23:20:19.449Z,19.46
2018-06-23T23:22:48.016Z,19.46
2018-06-23T23:25:16.645Z,19.46
2018-06-23T23:27:45.231Z,19.45
2018-06-23T23:30:14.648Z,19.43
2018-06-23T23:32:43.263Z,19.43
2018-06-23T23:35:11.943Z,19.43
2018-06-23T23:37:40.540Z,19.42
2018-06-23T23:40:09.132Z,19.42
2018-06-23T23:42:37.636Z,19.41
2018-06-23T23:45:06.258Z,19.40
2018-06-23T23:47:34.902Z,19.37
2018-06-23T23:50:03.431Z,19.37
2018-06-23T23:52:31.973Z,19.35
2018-06-23T23:55:00.624Z,19.32
2018-06-23T23:57:29.264Z,19.29
2018-06-23T23:59:57.778Z,19.26
